sensor_id;sensor_type;location;lat;lon;timestamp;P1;durP1;ratioP1;P2;durP2;ratioP2
56419;SDS011;42323;52.170;7.538;2023-12-20T00:00:36;582.88;;;333.50;;
56419;SDS011;42323;52.170;7.538;2023-12-20T00:03:04;607.95;;;329.35;;
56419;SDS011;42323;52.170;7.538;2023-12-20T00:05:30;605.92;;;330.13;;
56419;SDS011;42323;52.170;7.538;2023-12-20T00:08:01;566.78;;;319.63;;
56419;SDS011;42323;52.170;7.538;2023-12-20T00:10:28;577.72;;;327.25;;
56419;SDS011;42323;52.170;7.538;2023-12-20T00:12:54;574.50;;;328.20;;
56419;SDS011;42323;52.170;7.538;2023-12-20T00:15:21;570.38;;;323.55;;
56419;SDS011;42323;52.170;7.538;2023-12-20T00:17:47;566.17;;;322.55;;
56419;SDS011;42323;52.170;7.538;2023-12-20T00:20:14;557.40;;;314.27;;
56419;SDS011;42323;52.170;7.538;2023-12-20T00:22:41;560.83;;;315.35;;
56419;SDS011;42323;52.170;7.538;2023-12-20T00:25:07;557.58;;;312.42;;
56419;SDS011;42323;52.170;7.538;2023-12-20T00:27:34;557.60;;;314.35;;
56419;SDS011;42323;52.170;7.538;2023-12-20T00:30:00;557.92;;;313.15;;
56419;SDS011;42323;52.170;7.538;2023-12-20T00:32:27;552.35;;;310.25;;
56419;SDS011;42323;52.170;7.538;2023-12-20T00:34:53;556.22;;;311.95;;
56419;SDS011;42323;52.170;7.538;2023-12-20T00:37:20;548.05;;;304.75;;
56419;SDS011;42323;52.170;7.538;2023-12-20T00:39:49;555.10;;;293.00;;
56419;SDS011;42323;52.170;7.538;2023-12-20T00:42:16;521.55;;;287.80;;
56419;SDS011;42323;52.170;7.538;2023-12-20T00:44:42;548.75;;;289.77;;
56419;SDS011;42323;52.170;7.538;2023-12-20T00:47:09;549.03;;;290.80;;
56419;SDS011;42323;52.170;7.538;2023-12-20T00:49:35;518.78;;;285.48;;
56419;SDS011;42323;52.170;7.538;2023-12-20T00:52:02;518.70;;;287.85;;
56419;SDS011;42323;52.170;7.538;2023-12-20T00:54:28;521.50;;;288.42;;
56419;SDS011;42323;52.170;7.538;2023-12-20T00:56:56;540.65;;;287.17;;
56419;SDS011;42323;52.170;7.538;2023-12-20T00:59:23;509.27;;;282.23;;
56419;SDS011;42323;52.170;7.538;2023-12-20T01:01:49;517.67;;;285.48;;
56419;SDS011;42323;52.170;7.538;2023-12-20T01:04:16;538.30;;;286.65;;
56419;SDS011;42323;52.170;7.538;2023-12-20T01:06:42;506.35;;;283.45;;
56419;SDS011;42323;52.170;7.538;2023-12-20T01:09:09;511.33;;;287.00;;
56419;SDS011;42323;52.170;7.538;2023-12-20T01:11:35;511.48;;;283.15;;
56419;SDS011;42323;52.170;7.538;2023-12-20T01:14:05;507.15;;;281.25;;
56419;SDS011;42323;52.170;7.538;2023-12-20T01:16:31;531.03;;;283.60;;
56419;SDS011;42323;52.170;7.538;2023-12-20T01:18:57;530.88;;;283.25;;
56419;SDS011;42323;52.170;7.538;2023-12-20T01:21:24;505.80;;;281.83;;
56419;SDS011;42323;52.170;7.538;2023-12-20T01:23:51;529.65;;;284.60;;
56419;SDS011;42323;52.170;7.538;2023-12-20T01:26:18;502.00;;;281.25;;
56419;SDS011;42323;52.170;7.538;2023-12-20T01:28:44;501.27;;;279.92;;
56419;SDS011;42323;52.170;7.538;2023-12-20T01:31:10;503.00;;;280.00;;
56419;SDS011;42323;52.170;7.538;2023-12-20T01:33:37;504.58;;;281.30;;
56419;SDS011;42323;52.170;7.538;2023-12-20T01:36:04;504.17;;;280.83;;
56419;SDS011;42323;52.170;7.538;2023-12-20T01:38:30;500.35;;;281.08;;
56419;SDS011;42323;52.170;7.538;2023-12-20T01:40:57;500.77;;;279.40;;
56419;SDS011;42323;52.170;7.538;2023-12-20T01:43:23;498.88;;;279.52;;
56419;SDS011;42323;52.170;7.538;2023-12-20T01:45:53;497.88;;;277.85;;
56419;SDS011;42323;52.170;7.538;2023-12-20T01:48:20;494.02;;;276.48;;
56419;SDS011;42323;52.170;7.538;2023-12-20T01:50:47;490.98;;;277.55;;
56419;SDS011;42323;52.170;7.538;2023-12-20T01:53:14;492.23;;;276.75;;
56419;SDS011;42323;52.170;7.538;2023-12-20T01:55:42;495.00;;;277.75;;
56419;SDS011;42323;52.170;7.538;2023-12-20T01:58:08;496.05;;;279.23;;
56419;SDS011;42323;52.170;7.538;2023-12-20T02:00:36;517.17;;;278.55;;
56419;SDS011;42323;52.170;7.538;2023-12-20T02:03:03;492.02;;;277.27;;
56419;SDS011;42323;52.170;7.538;2023-12-20T02:05:30;495.08;;;279.23;;
56419;SDS011;42323;52.170;7.538;2023-12-20T02:07:57;488.88;;;277.23;;
56419;SDS011;42323;52.170;7.538;2023-12-20T02:10:23;519.05;;;280.85;;
56419;SDS011;42323;52.170;7.538;2023-12-20T02:12:50;485.65;;;275.92;;
56419;SDS011;42323;52.170;7.538;2023-12-20T02:15:17;517.88;;;280.25;;
56419;SDS011;42323;52.170;7.538;2023-12-20T02:17:43;490.85;;;276.75;;
56419;SDS011;42323;52.170;7.538;2023-12-20T02:20:11;516.53;;;280.15;;
56419;SDS011;42323;52.170;7.538;2023-12-20T02:22:37;486.85;;;277.05;;
56419;SDS011;42323;52.170;7.538;2023-12-20T02:25:04;487.45;;;275.80;;
56419;SDS011;42323;52.170;7.538;2023-12-20T02:27:30;487.40;;;277.65;;
56419;SDS011;42323;52.170;7.538;2023-12-20T02:29:57;512.00;;;277.20;;
56419;SDS011;42323;52.170;7.538;2023-12-20T02:32:24;490.52;;;279.08;;
56419;SDS011;42323;52.170;7.538;2023-12-20T02:34:53;485.23;;;277.45;;
56419;SDS011;42323;52.170;7.538;2023-12-20T02:37:20;498.35;;;279.52;;
56419;SDS011;42323;52.170;7.538;2023-12-20T02:39:46;488.02;;;276.55;;
56419;SDS011;42323;52.170;7.538;2023-12-20T02:42:13;489.00;;;278.50;;
56419;SDS011;42323;52.170;7.538;2023-12-20T02:44:39;517.75;;;281.05;;
56419;SDS011;42323;52.170;7.538;2023-12-20T02:47:05;489.95;;;277.80;;
56419;SDS011;42323;52.170;7.538;2023-12-20T02:49:32;512.25;;;277.67;;
56419;SDS011;42323;52.170;7.538;2023-12-20T02:51:59;486.95;;;276.38;;
56419;SDS011;42323;52.170;7.538;2023-12-20T02:54:25;515.50;;;277.25;;
56419;SDS011;42323;52.170;7.538;2023-12-20T02:56:51;486.92;;;275.73;;
56419;SDS011;42323;52.170;7.538;2023-12-20T02:59:18;488.58;;;277.90;;
56419;SDS011;42323;52.170;7.538;2023-12-20T03:01:45;525.40;;;282.25;;
56419;SDS011;42323;52.170;7.538;2023-12-20T03:04:11;495.52;;;278.30;;
56419;SDS011;42323;52.170;7.538;2023-12-20T03:06:38;493.08;;;276.15;;
56419;SDS011;42323;52.170;7.538;2023-12-20T03:09:05;516.22;;;278.02;;
56419;SDS011;42323;52.170;7.538;2023-12-20T03:11:31;494.23;;;280.92;;
56419;SDS011;42323;52.170;7.538;2023-12-20T03:13:58;501.73;;;279.70;;
56419;SDS011;42323;52.170;7.538;2023-12-20T03:16:24;519.45;;;283.00;;
56419;SDS011;42323;52.170;7.538;2023-12-20T03:18:51;515.40;;;279.83;;
56419;SDS011;42323;52.170;7.538;2023-12-20T03:21:17;488.75;;;276.58;;
56419;SDS011;42323;52.170;7.538;2023-12-20T03:23:44;489.23;;;277.27;;
56419;SDS011;42323;52.170;7.538;2023-12-20T03:26:11;489.05;;;276.40;;
56419;SDS011;42323;52.170;7.538;2023-12-20T03:28:37;488.65;;;277.40;;
56419;SDS011;42323;52.170;7.538;2023-12-20T03:31:04;488.23;;;277.40;;
56419;SDS011;42323;52.170;7.538;2023-12-20T03:33:30;486.90;;;278.85;;
56419;SDS011;42323;52.170;7.538;2023-12-20T03:35:57;516.00;;;279.65;;
56419;SDS011;42323;52.170;7.538;2023-12-20T03:38:23;491.50;;;278.65;;
56419;SDS011;42323;52.170;7.538;2023-12-20T03:40:50;490.00;;;278.55;;
56419;SDS011;42323;52.170;7.538;2023-12-20T03:43:17;490.75;;;278.90;;
56419;SDS011;42323;52.170;7.538;2023-12-20T03:45:43;486.95;;;277.92;;
56419;SDS011;42323;52.170;7.538;2023-12-20T03:48:10;491.67;;;278.17;;
56419;SDS011;42323;52.170;7.538;2023-12-20T03:50:36;494.83;;;279.85;;
56419;SDS011;42323;52.170;7.538;2023-12-20T03:53:03;516.63;;;278.52;;
56419;SDS011;42323;52.170;7.538;2023-12-20T03:55:30;517.78;;;280.20;;
56419;SDS011;42323;52.170;7.538;2023-12-20T03:57:56;514.65;;;278.27;;
56419;SDS011;42323;52.170;7.538;2023-12-20T04:00:23;496.00;;;279.48;;
56419;SDS011;42323;52.170;7.538;2023-12-20T04:02:49;495.73;;;278.80;;
56419;SDS011;42323;52.170;7.538;2023-12-20T04:05:15;496.08;;;278.83;;
56419;SDS011;42323;52.170;7.538;2023-12-20T04:07:42;493.60;;;278.73;;
56419;SDS011;42323;52.170;7.538;2023-12-20T04:10:09;497.70;;;279.90;;
56419;SDS011;42323;52.170;7.538;2023-12-20T04:12:36;491.70;;;277.75;;
56419;SDS011;42323;52.170;7.538;2023-12-20T04:15:02;492.73;;;275.55;;
56419;SDS011;42323;52.170;7.538;2023-12-20T04:17:35;495.38;;;277.45;;
56419;SDS011;42323;52.170;7.538;2023-12-20T04:20:02;495.63;;;277.80;;
56419;SDS011;42323;52.170;7.538;2023-12-20T04:22:29;520.63;;;279.33;;
56419;SDS011;42323;52.170;7.538;2023-12-20T04:24:55;495.55;;;276.40;;
56419;SDS011;42323;52.170;7.538;2023-12-20T04:27:21;492.13;;;276.83;;
56419;SDS011;42323;52.170;7.538;2023-12-20T04:29:48;503.98;;;280.20;;
56419;SDS011;42323;52.170;7.538;2023-12-20T04:32:14;492.70;;;276.55;;
56419;SDS011;42323;52.170;7.538;2023-12-20T04:34:41;493.77;;;275.85;;
56419;SDS011;42323;52.170;7.538;2023-12-20T04:37:07;497.92;;;279.13;;
56419;SDS011;42323;52.170;7.538;2023-12-20T04:39:33;524.58;;;279.80;;
56419;SDS011;42323;52.170;7.538;2023-12-20T04:42:00;492.98;;;276.80;;
56419;SDS011;42323;52.170;7.538;2023-12-20T04:44:26;499.23;;;277.83;;
56419;SDS011;42323;52.170;7.538;2023-12-20T04:46:53;496.65;;;277.20;;
56419;SDS011;42323;52.170;7.538;2023-12-20T04:49:19;495.63;;;276.15;;
56419;SDS011;42323;52.170;7.538;2023-12-20T04:51:46;500.90;;;278.42;;
56419;SDS011;42323;52.170;7.538;2023-12-20T04:54:12;526.25;;;280.25;;
56419;SDS011;42323;52.170;7.538;2023-12-20T04:56:40;499.85;;;278.20;;
56419;SDS011;42323;52.170;7.538;2023-12-20T04:59:06;494.33;;;275.98;;
56419;SDS011;42323;52.170;7.538;2023-12-20T05:01:32;500.98;;;279.25;;
56419;SDS011;42323;52.170;7.538;2023-12-20T05:03:59;499.20;;;276.75;;
56419;SDS011;42323;52.170;7.538;2023-12-20T05:06:25;499.55;;;278.48;;
56419;SDS011;42323;52.170;7.538;2023-12-20T05:08:52;503.85;;;280.83;;
56419;SDS011;42323;52.170;7.538;2023-12-20T05:11:18;502.70;;;277.67;;
56419;SDS011;42323;52.170;7.538;2023-12-20T05:13:45;494.33;;;275.25;;
56419;SDS011;42323;52.170;7.538;2023-12-20T05:16:16;505.95;;;281.60;;
56419;SDS011;42323;52.170;7.538;2023-12-20T05:18:47;523.85;;;279.45;;
56419;SDS011;42323;52.170;7.538;2023-12-20T05:21:14;502.30;;;278.65;;
56419;SDS011;42323;52.170;7.538;2023-12-20T05:23:40;501.83;;;280.38;;
56419;SDS011;42323;52.170;7.538;2023-12-20T05:26:07;501.00;;;276.48;;
56419;SDS011;42323;52.170;7.538;2023-12-20T05:28:33;523.95;;;278.35;;
56419;SDS011;42323;52.170;7.538;2023-12-20T05:31:00;529.22;;;280.00;;
56419;SDS011;42323;52.170;7.538;2023-12-20T05:33:27;498.55;;;278.92;;
56419;SDS011;42323;52.170;7.538;2023-12-20T05:35:53;502.20;;;279.60;;
56419;SDS011;42323;52.170;7.538;2023-12-20T05:38:20;527.13;;;279.88;;
56419;SDS011;42323;52.170;7.538;2023-12-20T05:40:46;498.30;;;279.00;;
56419;SDS011;42323;52.170;7.538;2023-12-20T05:43:12;531.03;;;281.80;;
56419;SDS011;42323;52.170;7.538;2023-12-20T05:45:39;525.25;;;280.63;;
56419;SDS011;42323;52.170;7.538;2023-12-20T05:48:05;501.00;;;277.00;;
56419;SDS011;42323;52.170;7.538;2023-12-20T05:50:32;507.15;;;279.98;;
56419;SDS011;42323;52.170;7.538;2023-12-20T05:52:58;501.55;;;277.45;;
56419;SDS011;42323;52.170;7.538;2023-12-20T05:55:25;505.75;;;279.42;;
56419;SDS011;42323;52.170;7.538;2023-12-20T05:57:51;501.67;;;279.90;;
56419;SDS011;42323;52.170;7.538;2023-12-20T06:00:18;500.55;;;279.45;;
56419;SDS011;42323;52.170;7.538;2023-12-20T06:02:44;512.55;;;280.60;;
56419;SDS011;42323;52.170;7.538;2023-12-20T06:05:11;528.63;;;281.20;;
56419;SDS011;42323;52.170;7.538;2023-12-20T06:07:38;505.15;;;280.17;;
56419;SDS011;42323;52.170;7.538;2023-12-20T06:10:04;506.63;;;279.80;;
56419;SDS011;42323;52.170;7.538;2023-12-20T06:12:32;505.88;;;278.92;;
56419;SDS011;42323;52.170;7.538;2023-12-20T06:15:02;507.45;;;279.25;;
56419;SDS011;42323;52.170;7.538;2023-12-20T06:17:28;502.15;;;278.45;;
56419;SDS011;42323;52.170;7.538;2023-12-20T06:19:56;504.02;;;279.23;;
56419;SDS011;42323;52.170;7.538;2023-12-20T06:22:23;505.30;;;278.73;;
56419;SDS011;42323;52.170;7.538;2023-12-20T06:24:50;530.92;;;282.08;;
56419;SDS011;42323;52.170;7.538;2023-12-20T06:27:16;501.20;;;280.02;;
56419;SDS011;42323;52.170;7.538;2023-12-20T06:29:43;504.83;;;280.50;;
56419;SDS011;42323;52.170;7.538;2023-12-20T06:32:11;505.98;;;281.85;;
56419;SDS011;42323;52.170;7.538;2023-12-20T06:34:37;514.20;;;282.38;;
56419;SDS011;42323;52.170;7.538;2023-12-20T06:37:04;535.72;;;285.05;;
56419;SDS011;42323;52.170;7.538;2023-12-20T06:39:31;503.55;;;277.70;;
56419;SDS011;42323;52.170;7.538;2023-12-20T06:42:00;530.90;;;281.13;;
56419;SDS011;42323;52.170;7.538;2023-12-20T06:44:26;528.97;;;280.60;;
56419;SDS011;42323;52.170;7.538;2023-12-20T06:46:53;503.15;;;280.88;;
56419;SDS011;42323;52.170;7.538;2023-12-20T06:49:19;532.22;;;281.42;;
56419;SDS011;42323;52.170;7.538;2023-12-20T06:51:46;511.38;;;281.67;;
56419;SDS011;42323;52.170;7.538;2023-12-20T06:54:12;502.20;;;278.45;;
56419;SDS011;42323;52.170;7.538;2023-12-20T06:56:39;524.08;;;278.05;;
56419;SDS011;42323;52.170;7.538;2023-12-20T06:59:05;505.65;;;277.58;;
56419;SDS011;42323;52.170;7.538;2023-12-20T07:01:32;505.55;;;276.65;;
56419;SDS011;42323;52.170;7.538;2023-12-20T07:03:59;500.60;;;276.02;;
56419;SDS011;42323;52.170;7.538;2023-12-20T07:06:25;506.08;;;280.40;;
56419;SDS011;42323;52.170;7.538;2023-12-20T07:08:52;503.08;;;276.67;;
56419;SDS011;42323;52.170;7.538;2023-12-20T07:11:18;507.85;;;279.00;;
56419;SDS011;42323;52.170;7.538;2023-12-20T07:13:45;508.05;;;278.08;;
56419;SDS011;42323;52.170;7.538;2023-12-20T07:16:11;505.75;;;278.08;;
56419;SDS011;42323;52.170;7.538;2023-12-20T07:18:39;505.90;;;277.45;;
56419;SDS011;42323;52.170;7.538;2023-12-20T07:24:06;540.88;;;286.90;;
56419;SDS011;42323;52.170;7.538;2023-12-20T07:26:33;509.30;;;279.15;;
56419;SDS011;42323;52.170;7.538;2023-12-20T07:29:00;506.33;;;278.95;;
56419;SDS011;42323;52.170;7.538;2023-12-20T07:31:26;531.75;;;281.88;;
56419;SDS011;42323;52.170;7.538;2023-12-20T07:33:53;517.67;;;281.55;;
56419;SDS011;42323;52.170;7.538;2023-12-20T07:36:19;511.23;;;280.23;;
56419;SDS011;42323;52.170;7.538;2023-12-20T07:38:46;533.78;;;279.42;;
56419;SDS011;42323;52.170;7.538;2023-12-20T07:41:12;507.40;;;279.40;;
56419;SDS011;42323;52.170;7.538;2023-12-20T07:43:39;516.83;;;279.38;;
56419;SDS011;42323;52.170;7.538;2023-12-20T07:46:06;510.70;;;279.55;;
56419;SDS011;42323;52.170;7.538;2023-12-20T07:48:34;535.72;;;280.88;;
56419;SDS011;42323;52.170;7.538;2023-12-20T07:51:00;507.17;;;279.55;;
56419;SDS011;42323;52.170;7.538;2023-12-20T07:53:27;512.05;;;280.02;;
56419;SDS011;42323;52.170;7.538;2023-12-20T07:55:53;505.33;;;279.30;;
56419;SDS011;42323;52.170;7.538;2023-12-20T07:58:20;514.00;;;279.35;;
56419;SDS011;42323;52.170;7.538;2023-12-20T08:00:48;533.25;;;280.48;;
56419;SDS011;42323;52.170;7.538;2023-12-20T08:03:14;505.88;;;277.00;;
56419;SDS011;42323;52.170;7.538;2023-12-20T08:05:40;535.47;;;281.92;;
56419;SDS011;42323;52.170;7.538;2023-12-20T08:08:07;509.50;;;277.80;;
56419;SDS011;42323;52.170;7.538;2023-12-20T08:10:33;508.80;;;279.83;;
56419;SDS011;42323;52.170;7.538;2023-12-20T08:13:00;540.78;;;283.02;;
56419;SDS011;42323;52.170;7.538;2023-12-20T08:15:26;533.97;;;280.08;;
56419;SDS011;42323;52.170;7.538;2023-12-20T08:17:53;512.00;;;281.90;;
56419;SDS011;42323;52.170;7.538;2023-12-20T08:20:19;509.65;;;279.17;;
56419;SDS011;42323;52.170;7.538;2023-12-20T08:22:55;505.73;;;278.23;;
56419;SDS011;42323;52.170;7.538;2023-12-20T08:25:21;530.25;;;278.55;;
56419;SDS011;42323;52.170;7.538;2023-12-20T08:27:48;511.15;;;280.08;;
56419;SDS011;42323;52.170;7.538;2023-12-20T08:30:15;513.30;;;280.05;;
56419;SDS011;42323;52.170;7.538;2023-12-20T08:32:47;513.08;;;278.80;;
56419;SDS011;42323;52.170;7.538;2023-12-20T08:35:14;505.02;;;276.95;;
56419;SDS011;42323;52.170;7.538;2023-12-20T08:37:40;509.70;;;279.58;;
56419;SDS011;42323;52.170;7.538;2023-12-20T08:40:07;534.03;;;281.33;;
56419;SDS011;42323;52.170;7.538;2023-12-20T08:42:33;508.23;;;279.15;;
56419;SDS011;42323;52.170;7.538;2023-12-20T08:45:00;508.25;;;280.83;;
56419;SDS011;42323;52.170;7.538;2023-12-20T08:47:26;509.20;;;279.90;;
56419;SDS011;42323;52.170;7.538;2023-12-20T08:49:53;515.90;;;279.45;;
56419;SDS011;42323;52.170;7.538;2023-12-20T08:52:22;539.75;;;278.63;;
56419;SDS011;42323;52.170;7.538;2023-12-20T08:54:50;510.80;;;279.98;;
56419;SDS011;42323;52.170;7.538;2023-12-20T08:57:19;512.33;;;278.98;;
56419;SDS011;42323;52.170;7.538;2023-12-20T08:59:47;512.97;;;277.85;;
56419;SDS011;42323;52.170;7.538;2023-12-20T09:02:13;539.28;;;281.83;;
56419;SDS011;42323;52.170;7.538;2023-12-20T09:04:40;534.63;;;279.33;;
56419;SDS011;42323;52.170;7.538;2023-12-20T09:07:07;540.35;;;280.92;;
56419;SDS011;42323;52.170;7.538;2023-12-20T09:09:34;539.13;;;281.65;;
56419;SDS011;42323;52.170;7.538;2023-12-20T09:12:00;517.55;;;281.20;;
56419;SDS011;42323;52.170;7.538;2023-12-20T09:14:27;519.72;;;282.52;;
56419;SDS011;42323;52.170;7.538;2023-12-20T09:16:53;517.20;;;284.08;;
56419;SDS011;42323;52.170;7.538;2023-12-20T09:19:22;517.28;;;282.23;;
56419;SDS011;42323;52.170;7.538;2023-12-20T09:21:48;543.15;;;288.13;;
56419;SDS011;42323;52.170;7.538;2023-12-20T09:24:15;515.88;;;280.67;;
56419;SDS011;42323;52.170;7.538;2023-12-20T09:26:41;508.38;;;279.92;;
56419;SDS011;42323;52.170;7.538;2023-12-20T09:29:08;545.75;;;289.00;;
56419;SDS011;42323;52.170;7.538;2023-12-20T09:31:37;543.25;;;288.15;;
56419;SDS011;42323;52.170;7.538;2023-12-20T09:34:03;539.28;;;285.48;;
56419;SDS011;42323;52.170;7.538;2023-12-20T09:36:30;547.05;;;288.20;;
56419;SDS011;42323;52.170;7.538;2023-12-20T09:38:57;520.00;;;285.83;;
56419;SDS011;42323;52.170;7.538;2023-12-20T09:41:24;512.03;;;280.75;;
56419;SDS011;42323;52.170;7.538;2023-12-20T09:43:51;520.20;;;286.92;;
56419;SDS011;42323;52.170;7.538;2023-12-20T09:46:18;521.03;;;286.25;;
56419;SDS011;42323;52.170;7.538;2023-12-20T09:48:47;517.72;;;285.55;;
56419;SDS011;42323;52.170;7.538;2023-12-20T09:51:14;514.92;;;283.00;;
56419;SDS011;42323;52.170;7.538;2023-12-20T09:53:41;509.48;;;283.25;;
56419;SDS011;42323;52.170;7.538;2023-12-20T09:56:08;517.42;;;283.65;;
56419;SDS011;42323;52.170;7.538;2023-12-20T09:58:36;507.77;;;282.10;;
56419;SDS011;42323;52.170;7.538;2023-12-20T10:01:03;512.90;;;285.80;;
56419;SDS011;42323;52.170;7.538;2023-12-20T10:03:30;536.40;;;286.63;;
56419;SDS011;42323;52.170;7.538;2023-12-20T10:05:57;541.17;;;286.92;;
56419;SDS011;42323;52.170;7.538;2023-12-20T10:08:24;507.05;;;279.73;;
56419;SDS011;42323;52.170;7.538;2023-12-20T10:10:51;510.35;;;283.98;;
56419;SDS011;42323;52.170;7.538;2023-12-20T10:13:17;506.48;;;281.65;;
56419;SDS011;42323;52.170;7.538;2023-12-20T10:15:44;507.20;;;281.38;;
56419;SDS011;42323;52.170;7.538;2023-12-20T10:18:11;533.25;;;283.17;;
56419;SDS011;42323;52.170;7.538;2023-12-20T10:20:40;535.63;;;284.98;;
56419;SDS011;42323;52.170;7.538;2023-12-20T10:23:06;506.25;;;281.77;;
56419;SDS011;42323;52.170;7.538;2023-12-20T10:25:33;509.92;;;283.45;;
56419;SDS011;42323;52.170;7.538;2023-12-20T10:30:35;504.70;;;282.08;;
56419;SDS011;42323;52.170;7.538;2023-12-20T10:33:02;508.45;;;282.33;;
56419;SDS011;42323;52.170;7.538;2023-12-20T10:35:28;542.20;;;282.73;;
56419;SDS011;42323;52.170;7.538;2023-12-20T10:37:56;505.88;;;279.33;;
56419;SDS011;42323;52.170;7.538;2023-12-20T10:40:25;536.85;;;285.27;;
56419;SDS011;42323;52.170;7.538;2023-12-20T10:42:54;506.42;;;279.92;;
56419;SDS011;42323;52.170;7.538;2023-12-20T10:45:21;509.67;;;280.30;;
56419;SDS011;42323;52.170;7.538;2023-12-20T10:47:48;511.42;;;281.50;;
56419;SDS011;42323;52.170;7.538;2023-12-20T10:50:16;510.48;;;279.60;;
56419;SDS011;42323;52.170;7.538;2023-12-20T10:52:42;514.60;;;282.27;;
56419;SDS011;42323;52.170;7.538;2023-12-20T10:55:10;514.40;;;282.67;;
56419;SDS011;42323;52.170;7.538;2023-12-20T10:57:37;513.08;;;280.02;;
56419;SDS011;42323;52.170;7.538;2023-12-20T11:00:03;539.20;;;281.60;;
56419;SDS011;42323;52.170;7.538;2023-12-20T11:02:36;517.38;;;281.33;;
56419;SDS011;42323;52.170;7.538;2023-12-20T11:05:12;554.97;;;289.08;;
56419;SDS011;42323;52.170;7.538;2023-12-20T11:07:43;566.17;;;291.88;;
56419;SDS011;42323;52.170;7.538;2023-12-20T11:10:15;542.00;;;286.40;;
56419;SDS011;42323;52.170;7.538;2023-12-20T11:12:46;536.53;;;279.10;;
56419;SDS011;42323;52.170;7.538;2023-12-20T11:15:13;569.40;;;285.75;;
56419;SDS011;42323;52.170;7.538;2023-12-20T11:17:42;551.80;;;284.08;;
56419;SDS011;42323;52.170;7.538;2023-12-20T11:20:14;555.13;;;285.63;;
56419;SDS011;42323;52.170;7.538;2023-12-20T11:22:51;570.75;;;285.13;;
56419;SDS011;42323;52.170;7.538;2023-12-20T11:25:18;557.47;;;287.00;;
56419;SDS011;42323;52.170;7.538;2023-12-20T11:27:44;544.83;;;284.10;;
56419;SDS011;42323;52.170;7.538;2023-12-20T11:30:40;556.60;;;290.85;;
56419;SDS011;42323;52.170;7.538;2023-12-20T11:33:07;554.90;;;288.55;;
56419;SDS011;42323;52.170;7.538;2023-12-20T11:35:34;542.72;;;287.15;;
56419;SDS011;42323;52.170;7.538;2023-12-20T11:38:03;565.92;;;289.13;;
56419;SDS011;42323;52.170;7.538;2023-12-20T11:40:31;537.10;;;286.17;;
56419;SDS011;42323;52.170;7.538;2023-12-20T11:42:59;541.38;;;287.13;;
56419;SDS011;42323;52.170;7.538;2023-12-20T11:45:26;541.92;;;288.63;;
56419;SDS011;42323;52.170;7.538;2023-12-20T11:47:56;543.15;;;287.70;;
56419;SDS011;42323;52.170;7.538;2023-12-20T11:50:24;538.85;;;286.15;;
56419;SDS011;42323;52.170;7.538;2023-12-20T11:52:51;539.63;;;287.30;;
56419;SDS011;42323;52.170;7.538;2023-12-20T11:55:18;543.28;;;287.98;;
56419;SDS011;42323;52.170;7.538;2023-12-20T11:57:44;568.05;;;288.00;;
56419;SDS011;42323;52.170;7.538;2023-12-20T12:00:12;543.92;;;286.25;;
56419;SDS011;42323;52.170;7.538;2023-12-20T12:02:39;565.13;;;288.63;;
56419;SDS011;42323;52.170;7.538;2023-12-20T12:05:06;541.65;;;287.00;;
56419;SDS011;42323;52.170;7.538;2023-12-20T12:07:36;563.60;;;288.50;;
56419;SDS011;42323;52.170;7.538;2023-12-20T12:10:02;535.92;;;285.25;;
56419;SDS011;42323;52.170;7.538;2023-12-20T12:12:32;539.58;;;287.13;;
56419;SDS011;42323;52.170;7.538;2023-12-20T12:14:59;531.33;;;288.80;;
56419;SDS011;42323;52.170;7.538;2023-12-20T12:17:25;558.10;;;291.33;;
56419;SDS011;42323;52.170;7.538;2023-12-20T12:19:52;534.20;;;288.27;;
56419;SDS011;42323;52.170;7.538;2023-12-20T12:22:27;532.03;;;287.50;;
56419;SDS011;42323;52.170;7.538;2023-12-20T12:24:54;508.17;;;279.58;;
56419;SDS011;42323;52.170;7.538;2023-12-20T12:27:20;504.52;;;279.50;;
56419;SDS011;42323;52.170;7.538;2023-12-20T12:30:01;498.70;;;276.05;;
56419;SDS011;42323;52.170;7.538;2023-12-20T12:32:30;490.38;;;272.60;;
56419;SDS011;42323;52.170;7.538;2023-12-20T12:34:56;487.90;;;271.00;;
56419;SDS011;42323;52.170;7.538;2023-12-20T12:37:23;515.67;;;275.02;;
56419;SDS011;42323;52.170;7.538;2023-12-20T12:39:53;491.20;;;275.83;;
56419;SDS011;42323;52.170;7.538;2023-12-20T12:42:19;491.88;;;275.77;;
56419;SDS011;42323;52.170;7.538;2023-12-20T12:44:47;516.25;;;276.40;;
56419;SDS011;42323;52.170;7.538;2023-12-20T12:47:13;487.45;;;274.00;;
56419;SDS011;42323;52.170;7.538;2023-12-20T12:49:40;510.42;;;273.52;;
56419;SDS011;42323;52.170;7.538;2023-12-20T12:52:06;489.42;;;273.80;;
56419;SDS011;42323;52.170;7.538;2023-12-20T12:54:33;486.77;;;273.50;;
56419;SDS011;42323;52.170;7.538;2023-12-20T12:56:59;491.42;;;276.52;;
56419;SDS011;42323;52.170;7.538;2023-12-20T12:59:26;498.33;;;277.98;;
56419;SDS011;42323;52.170;7.538;2023-12-20T13:01:52;501.63;;;275.40;;
56419;SDS011;42323;52.170;7.538;2023-12-20T13:04:19;524.97;;;280.63;;
56419;SDS011;42323;52.170;7.538;2023-12-20T13:06:46;522.17;;;279.48;;
56419;SDS011;42323;52.170;7.538;2023-12-20T13:09:13;500.00;;;277.55;;
56419;SDS011;42323;52.170;7.538;2023-12-20T13:11:39;500.67;;;278.85;;
56419;SDS011;42323;52.170;7.538;2023-12-20T13:14:06;527.53;;;280.55;;
56419;SDS011;42323;52.170;7.538;2023-12-20T13:16:33;503.70;;;278.25;;
56419;SDS011;42323;52.170;7.538;2023-12-20T13:19:00;502.05;;;278.00;;
56419;SDS011;42323;52.170;7.538;2023-12-20T13:21:27;502.13;;;278.02;;
56419;SDS011;42323;52.170;7.538;2023-12-20T13:23:53;501.33;;;277.85;;
56419;SDS011;42323;52.170;7.538;2023-12-20T13:26:20;505.73;;;280.30;;
56419;SDS011;42323;52.170;7.538;2023-12-20T13:28:47;532.08;;;282.45;;
56419;SDS011;42323;52.170;7.538;2023-12-20T13:31:13;503.73;;;279.58;;
56419;SDS011;42323;52.170;7.538;2023-12-20T13:33:40;527.85;;;278.98;;
56419;SDS011;42323;52.170;7.538;2023-12-20T13:36:06;505.70;;;281.45;;
56419;SDS011;42323;52.170;7.538;2023-12-20T13:38:33;504.38;;;281.52;;
56419;SDS011;42323;52.170;7.538;2023-12-20T13:41:00;504.35;;;279.33;;
56419;SDS011;42323;52.170;7.538;2023-12-20T13:43:26;507.02;;;280.73;;
56419;SDS011;42323;52.170;7.538;2023-12-20T13:45:53;505.48;;;281.40;;
56419;SDS011;42323;52.170;7.538;2023-12-20T13:48:19;501.35;;;279.85;;
56419;SDS011;42323;52.170;7.538;2023-12-20T13:50:46;508.55;;;281.55;;
56419;SDS011;42323;52.170;7.538;2023-12-20T13:53:12;529.05;;;281.13;;
56419;SDS011;42323;52.170;7.538;2023-12-20T13:55:39;503.10;;;278.92;;
56419;SDS011;42323;52.170;7.538;2023-12-20T13:58:06;500.42;;;280.67;;
56419;SDS011;42323;52.170;7.538;2023-12-20T14:00:33;504.75;;;280.48;;